sensor_id;sensor_type;location;lat;lon;timestamp;temperature;humidity
31783;DHT22;18351;47.560;9.708;2023-07-31T00:00:07;18.70;99.90
31783;DHT22;18351;47.560;9.708;2023-07-31T00:02:34;18.70;99.90
31783;DHT22;18351;47.560;9.708;2023-07-31T00:05:01;18.70;99.90
31783;DHT22;18351;47.560;9.708;2023-07-31T00:07:26;18.70;99.90
31783;DHT22;18351;47.560;9.708;2023-07-31T00:09:52;18.50;99.90
31783;DHT22;18351;47.560;9.708;2023-07-31T00:12:19;18.50;99.90
31783;DHT22;18351;47.560;9.708;2023-07-31T00:14:45;18.50;99.90
31783;DHT22;18351;47.560;9.708;2023-07-31T00:17:11;18.40;99.90
31783;DHT22;18351;47.560;9.708;2023-07-31T00:19:36;18.40;99.90
31783;DHT22;18351;47.560;9.708;2023-07-31T00:22:02;18.20;99.90
31783;DHT22;18351;47.560;9.708;2023-07-31T00:24:28;18.20;99.90
31783;DHT22;18351;47.560;9.708;2023-07-31T00:26:53;18.10;99.90
31783;DHT22;18351;47.560;9.708;2023-07-31T00:29:19;18.10;99.90
31783;DHT22;18351;47.560;9.708;2023-07-31T00:31:44;18.10;99.90
31783;DHT22;18351;47.560;9.708;2023-07-31T00:34:10;18.20;99.90
31783;DHT22;18351;47.560;9.708;2023-07-31T00:36:35;18.20;99.90
31783;DHT22;18351;47.560;9.708;2023-07-31T00:39:01;18.20;99.90
31783;DHT22;18351;47.560;9.708;2023-07-31T00:41:26;18.30;99.90
31783;DHT22;18351;47.560;9.708;2023-07-31T00:43:52;18.40;99.90
31783;DHT22;18351;47.560;9.708;2023-07-31T00:46:18;18.50;99.90
31783;DHT22;18351;47.560;9.708;2023-07-31T00:48:43;18.60;99.90
31783;DHT22;18351;47.560;9.708;2023-07-31T00:51:09;18.70;99.90
31783;DHT22;18351;47.560;9.708;2023-07-31T00:53:35;18.70;99.90
31783;DHT22;18351;47.560;9.708;2023-07-31T00:56:01;18.80;99.90
31783;DHT22;18351;47.560;9.708;2023-07-31T00:58:27;18.90;99.90
31783;DHT22;18351;47.560;9.708;2023-07-31T01:00:52;18.90;99.90
31783;DHT22;18351;47.560;9.708;2023-07-31T01:03:18;18.90;99.90
31783;DHT22;18351;47.560;9.708;2023-07-31T01:06:14;18.90;99.90
31783;DHT22;18351;47.560;9.708;2023-07-31T01:08:48;18.90;99.90
31783;DHT22;18351;47.560;9.708;2023-07-31T01:11:46;18.80;99.90
31783;DHT22;18351;47.560;9.708;2023-07-31T01:14:12;19.00;99.90
31783;DHT22;18351;47.560;9.708;2023-07-31T01:16:37;19.10;99.90
31783;DHT22;18351;47.560;9.708;2023-07-31T01:19:03;19.10;99.90
31783;DHT22;18351;47.560;9.708;2023-07-31T01:24:22;19.20;99.90
31783;DHT22;18351;47.560;9.708;2023-07-31T01:27:15;19.20;99.90
31783;DHT22;18351;47.560;9.708;2023-07-31T01:32:09;19.10;99.90
31783;DHT22;18351;47.560;9.708;2023-07-31T01:34:36;19.10;99.90
31783;DHT22;18351;47.560;9.708;2023-07-31T01:37:02;19.10;99.90
31783;DHT22;18351;47.560;9.708;2023-07-31T01:39:28;19.00;99.90
31783;DHT22;18351;47.560;9.708;2023-07-31T01:41:54;19.00;99.90
31783;DHT22;18351;47.560;9.708;2023-07-31T01:44:19;19.00;99.90
31783;DHT22;18351;47.560;9.708;2023-07-31T01:46:45;18.90;99.90
31783;DHT22;18351;47.560;9.708;2023-07-31T01:49:10;19.00;99.90
31783;DHT22;18351;47.560;9.708;2023-07-31T01:51:36;19.00;99.90
31783;DHT22;18351;47.560;9.708;2023-07-31T01:54:02;18.90;99.90
31783;DHT22;18351;47.560;9.708;2023-07-31T01:56:28;18.90;99.90
31783;DHT22;18351;47.560;9.708;2023-07-31T01:58:53;18.80;99.90
31783;DHT22;18351;47.560;9.708;2023-07-31T02:01:19;18.80;99.90
31783;DHT22;18351;47.560;9.708;2023-07-31T02:03:44;18.70;99.90
31783;DHT22;18351;47.560;9.708;2023-07-31T02:06:10;18.70;99.90
31783;DHT22;18351;47.560;9.708;2023-07-31T02:08:35;18.70;99.90
31783;DHT22;18351;47.560;9.708;2023-07-31T02:11:01;18.50;99.90
31783;DHT22;18351;47.560;9.708;2023-07-31T02:13:26;18.50;99.90
31783;DHT22;18351;47.560;9.708;2023-07-31T02:15:52;18.40;99.90
31783;DHT22;18351;47.560;9.708;2023-07-31T02:18:18;18.40;99.90
31783;DHT22;18351;47.560;9.708;2023-07-31T02:20:43;18.30;99.90
31783;DHT22;18351;47.560;9.708;2023-07-31T02:23:14;18.30;99.90
31783;DHT22;18351;47.560;9.708;2023-07-31T02:25:39;18.30;99.90
31783;DHT22;18351;47.560;9.708;2023-07-31T02:28:05;18.20;99.90
31783;DHT22;18351;47.560;9.708;2023-07-31T02:30:30;18.30;99.90
31783;DHT22;18351;47.560;9.708;2023-07-31T02:32:56;18.20;99.90
31783;DHT22;18351;47.560;9.708;2023-07-31T02:35:22;18.20;99.90
31783;DHT22;18351;47.560;9.708;2023-07-31T02:37:47;18.30;99.90
31783;DHT22;18351;47.560;9.708;2023-07-31T02:40:13;18.20;99.90
31783;DHT22;18351;47.560;9.708;2023-07-31T02:42:38;18.30;99.90
31783;DHT22;18351;47.560;9.708;2023-07-31T02:45:05;18.30;99.90
31783;DHT22;18351;47.560;9.708;2023-07-31T02:47:30;18.30;99.90
31783;DHT22;18351;47.560;9.708;2023-07-31T02:49:56;18.30;99.90
31783;DHT22;18351;47.560;9.708;2023-07-31T02:52:21;18.40;99.90
31783;DHT22;18351;47.560;9.708;2023-07-31T02:54:47;18.30;99.90
31783;DHT22;18351;47.560;9.708;2023-07-31T02:57:12;18.30;99.90
31783;DHT22;18351;47.560;9.708;2023-07-31T02:59:38;18.30;99.90
31783;DHT22;18351;47.560;9.708;2023-07-31T03:02:04;18.30;99.90
31783;DHT22;18351;47.560;9.708;2023-07-31T03:04:29;18.30;99.90
31783;DHT22;18351;47.560;9.708;2023-07-31T03:06:55;18.20;99.90
31783;DHT22;18351;47.560;9.708;2023-07-31T03:09:20;18.20;99.90
31783;DHT22;18351;47.560;9.708;2023-07-31T03:11:46;18.10;99.90
31783;DHT22;18351;47.560;9.708;2023-07-31T03:14:11;18.00;99.90
31783;DHT22;18351;47.560;9.708;2023-07-31T03:16:37;18.00;99.90
31783;DHT22;18351;47.560;9.708;2023-07-31T03:19:02;18.00;99.90
31783;DHT22;18351;47.560;9.708;2023-07-31T03:21:28;17.90;99.90
31783;DHT22;18351;47.560;9.708;2023-07-31T03:23:54;18.00;99.90
31783;DHT22;18351;47.560;9.708;2023-07-31T03:26:19;17.80;99.90
31783;DHT22;18351;47.560;9.708;2023-07-31T03:28:45;17.80;99.90
31783;DHT22;18351;47.560;9.708;2023-07-31T03:31:10;17.80;99.90
31783;DHT22;18351;47.560;9.708;2023-07-31T03:33:36;17.70;99.90
31783;DHT22;18351;47.560;9.708;2023-07-31T03:36:02;17.70;99.90
31783;DHT22;18351;47.560;9.708;2023-07-31T03:38:28;17.70;99.90
31783;DHT22;18351;47.560;9.708;2023-07-31T03:40:53;17.60;99.90
31783;DHT22;18351;47.560;9.708;2023-07-31T03:43:19;17.50;99.90
31783;DHT22;18351;47.560;9.708;2023-07-31T03:45:45;17.50;99.90
31783;DHT22;18351;47.560;9.708;2023-07-31T03:48:10;17.50;99.90
31783;DHT22;18351;47.560;9.708;2023-07-31T03:50:36;17.50;99.90
31783;DHT22;18351;47.560;9.708;2023-07-31T03:53:01;17.60;99.90
31783;DHT22;18351;47.560;9.708;2023-07-31T03:55:27;17.60;99.90
31783;DHT22;18351;47.560;9.708;2023-07-31T03:57:52;17.60;99.90
31783;DHT22;18351;47.560;9.708;2023-07-31T04:00:18;17.60;99.90
31783;DHT22;18351;47.560;9.708;2023-07-31T04:02:44;17.70;99.90
31783;DHT22;18351;47.560;9.708;2023-07-31T04:05:09;17.70;99.90
31783;DHT22;18351;47.560;9.708;2023-07-31T04:07:36;17.70;99.90
31783;DHT22;18351;47.560;9.708;2023-07-31T04:10:01;17.80;99.90
31783;DHT22;18351;47.560;9.708;2023-07-31T04:12:27;17.80;99.90
31783;DHT22;18351;47.560;9.708;2023-07-31T04:14:53;17.80;99.90
31783;DHT22;18351;47.560;9.708;2023-07-31T04:17:18;17.90;99.90
31783;DHT22;18351;47.560;9.708;2023-07-31T04:19:44;17.90;99.90
31783;DHT22;18351;47.560;9.708;2023-07-31T04:22:09;17.90;99.90
31783;DHT22;18351;47.560;9.708;2023-07-31T04:24:35;17.90;99.90
31783;DHT22;18351;47.560;9.708;2023-07-31T04:27:00;17.90;99.90
31783;DHT22;18351;47.560;9.708;2023-07-31T04:29:26;17.90;99.90
31783;DHT22;18351;47.560;9.708;2023-07-31T04:31:52;18.00;99.90
31783;DHT22;18351;47.560;9.708;2023-07-31T04:34:17;18.00;99.90
31783;DHT22;18351;47.560;9.708;2023-07-31T04:36:43;18.00;99.90
31783;DHT22;18351;47.560;9.708;2023-07-31T04:39:08;18.00;99.90
31783;DHT22;18351;47.560;9.708;2023-07-31T04:41:34;18.10;99.90
31783;DHT22;18351;47.560;9.708;2023-07-31T04:43:59;18.10;99.90
31783;DHT22;18351;47.560;9.708;2023-07-31T04:46:25;18.00;99.90
31783;DHT22;18351;47.560;9.708;2023-07-31T04:48:50;18.10;99.90
31783;DHT22;18351;47.560;9.708;2023-07-31T04:51:16;18.10;99.90
31783;DHT22;18351;47.560;9.708;2023-07-31T04:53:42;18.10;99.90
31783;DHT22;18351;47.560;9.708;2023-07-31T04:56:07;18.20;99.90
31783;DHT22;18351;47.560;9.708;2023-07-31T04:58:33;18.30;99.90
31783;DHT22;18351;47.560;9.708;2023-07-31T05:00:58;18.30;99.90
31783;DHT22;18351;47.560;9.708;2023-07-31T05:03:24;18.30;99.90
31783;DHT22;18351;47.560;9.708;2023-07-31T05:05:50;18.40;99.90
31783;DHT22;18351;47.560;9.708;2023-07-31T05:08:16;18.50;99.90
31783;DHT22;18351;47.560;9.708;2023-07-31T05:10:43;18.60;99.90
31783;DHT22;18351;47.560;9.708;2023-07-31T05:13:08;18.60;99.90
31783;DHT22;18351;47.560;9.708;2023-07-31T05:15:34;18.60;99.90
31783;DHT22;18351;47.560;9.708;2023-07-31T05:17:59;18.70;99.90
31783;DHT22;18351;47.560;9.708;2023-07-31T05:20:25;18.70;99.90
31783;DHT22;18351;47.560;9.708;2023-07-31T05:22:51;18.70;99.90
31783;DHT22;18351;47.560;9.708;2023-07-31T05:25:16;18.80;99.90
31783;DHT22;18351;47.560;9.708;2023-07-31T05:27:42;18.80;99.90
31783;DHT22;18351;47.560;9.708;2023-07-31T05:30:08;18.90;99.90
31783;DHT22;18351;47.560;9.708;2023-07-31T05:32:34;18.90;99.90
31783;DHT22;18351;47.560;9.708;2023-07-31T05:34:59;19.00;99.90
31783;DHT22;18351;47.560;9.708;2023-07-31T05:37:25;19.00;99.90
31783;DHT22;18351;47.560;9.708;2023-07-31T05:39:50;19.00;99.90
31783;DHT22;18351;47.560;9.708;2023-07-31T05:42:17;19.00;99.90
31783;DHT22;18351;47.560;9.708;2023-07-31T05:44:43;19.00;99.90
31783;DHT22;18351;47.560;9.708;2023-07-31T05:47:09;19.00;99.90
31783;DHT22;18351;47.560;9.708;2023-07-31T05:49:35;19.10;99.90
31783;DHT22;18351;47.560;9.708;2023-07-31T05:52:00;19.20;99.90
31783;DHT22;18351;47.560;9.708;2023-07-31T05:54:26;19.20;99.90
31783;DHT22;18351;47.560;9.708;2023-07-31T05:56:51;19.40;99.90
31783;DHT22;18351;47.560;9.708;2023-07-31T05:59:17;19.50;99.90
31783;DHT22;18351;47.560;9.708;2023-07-31T06:01:42;19.70;99.90
31783;DHT22;18351;47.560;9.708;2023-07-31T06:04:08;19.80;99.90
31783;DHT22;18351;47.560;9.708;2023-07-31T06:06:34;19.80;99.90
31783;DHT22;18351;47.560;9.708;2023-07-31T06:09:00;19.80;99.90
31783;DHT22;18351;47.560;9.708;2023-07-31T06:11:26;19.80;99.90
31783;DHT22;18351;47.560;9.708;2023-07-31T06:13:51;19.80;99.90
31783;DHT22;18351;47.560;9.708;2023-07-31T06:16:17;20.00;99.90
31783;DHT22;18351;47.560;9.708;2023-07-31T06:18:43;20.00;99.90
31783;DHT22;18351;47.560;9.708;2023-07-31T06:21:09;20.10;99.90
31783;DHT22;18351;47.560;9.708;2023-07-31T06:23:35;20.20;99.90
31783;DHT22;18351;47.560;9.708;2023-07-31T06:26:01;20.10;99.10
31783;DHT22;18351;47.560;9.708;2023-07-31T06:28:30;20.20;99.90
31783;DHT22;18351;47.560;9.708;2023-07-31T06:30:56;20.20;99.30
31783;DHT22;18351;47.560;9.708;2023-07-31T06:33:22;20.10;98.60
31783;DHT22;18351;47.560;9.708;2023-07-31T06:35:47;20.10;98.50
31783;DHT22;18351;47.560;9.708;2023-07-31T06:38:13;20.00;97.70
31783;DHT22;18351;47.560;9.708;2023-07-31T06:40:38;20.00;98.00
31783;DHT22;18351;47.560;9.708;2023-07-31T06:43:04;20.00;98.10
31783;DHT22;18351;47.560;9.708;2023-07-31T06:45:36;20.00;98.30
31783;DHT22;18351;47.560;9.708;2023-07-31T06:48:03;20.10;98.00
31783;DHT22;18351;47.560;9.708;2023-07-31T06:50:32;20.10;97.50
31783;DHT22;18351;47.560;9.708;2023-07-31T06:52:58;20.30;97.70
31783;DHT22;18351;47.560;9.708;2023-07-31T06:55:24;20.40;96.90
31783;DHT22;18351;47.560;9.708;2023-07-31T06:57:51;20.50;96.60
31783;DHT22;18351;47.560;9.708;2023-07-31T07:00:18;20.50;96.90
31783;DHT22;18351;47.560;9.708;2023-07-31T07:02:44;20.60;96.10
31783;DHT22;18351;47.560;9.708;2023-07-31T07:05:10;20.80;96.00
31783;DHT22;18351;47.560;9.708;2023-07-31T07:07:36;20.90;95.30
31783;DHT22;18351;47.560;9.708;2023-07-31T07:10:01;20.90;95.00
31783;DHT22;18351;47.560;9.708;2023-07-31T07:12:29;21.10;95.00
31783;DHT22;18351;47.560;9.708;2023-07-31T07:14:55;21.30;94.60
31783;DHT22;18351;47.560;9.708;2023-07-31T07:17:22;21.50;94.50
31783;DHT22;18351;47.560;9.708;2023-07-31T07:19:48;21.70;95.30
31783;DHT22;18351;47.560;9.708;2023-07-31T07:22:14;21.80;96.10
31783;DHT22;18351;47.560;9.708;2023-07-31T07:24:39;21.90;95.20
31783;DHT22;18351;47.560;9.708;2023-07-31T07:27:05;21.90;93.90
31783;DHT22;18351;47.560;9.708;2023-07-31T07:29:31;21.90;94.10
31783;DHT22;18351;47.560;9.708;2023-07-31T07:31:56;22.10;95.50
31783;DHT22;18351;47.560;9.708;2023-07-31T07:34:28;22.10;95.60
31783;DHT22;18351;47.560;9.708;2023-07-31T07:36:54;22.30;93.90
31783;DHT22;18351;47.560;9.708;2023-07-31T07:39:20;22.30;94.40
31783;DHT22;18351;47.560;9.708;2023-07-31T07:41:47;22.40;94.00
31783;DHT22;18351;47.560;9.708;2023-07-31T07:44:13;22.40;94.10
31783;DHT22;18351;47.560;9.708;2023-07-31T07:46:39;22.40;91.80
31783;DHT22;18351;47.560;9.708;2023-07-31T07:49:05;22.40;92.20
31783;DHT22;18351;47.560;9.708;2023-07-31T07:51:30;22.50;92.80
31783;DHT22;18351;47.560;9.708;2023-07-31T07:54:00;22.60;92.40
31783;DHT22;18351;47.560;9.708;2023-07-31T07:56:27;22.70;91.80
31783;DHT22;18351;47.560;9.708;2023-07-31T07:58:53;22.80;91.60
31783;DHT22;18351;47.560;9.708;2023-07-31T08:01:18;23.00;91.20
31783;DHT22;18351;47.560;9.708;2023-07-31T08:03:44;23.10;91.20
31783;DHT22;18351;47.560;9.708;2023-07-31T08:06:10;22.90;88.80
31783;DHT22;18351;47.560;9.708;2023-07-31T08:08:36;22.90;90.60
31783;DHT22;18351;47.560;9.708;2023-07-31T08:11:02;23.20;90.40
31783;DHT22;18351;47.560;9.708;2023-07-31T08:13:28;23.10;85.00
31783;DHT22;18351;47.560;9.708;2023-07-31T08:15:53;22.60;87.10
31783;DHT22;18351;47.560;9.708;2023-07-31T08:18:19;22.40;88.20
31783;DHT22;18351;47.560;9.708;2023-07-31T08:20:45;22.10;88.70
31783;DHT22;18351;47.560;9.708;2023-07-31T08:23:10;22.00;88.10
31783;DHT22;18351;47.560;9.708;2023-07-31T08:25:36;22.00;87.80
31783;DHT22;18351;47.560;9.708;2023-07-31T08:28:05;22.00;89.90
31783;DHT22;18351;47.560;9.708;2023-07-31T08:30:32;22.20;88.20
31783;DHT22;18351;47.560;9.708;2023-07-31T08:32:58;22.30;86.60
31783;DHT22;18351;47.560;9.708;2023-07-31T08:35:24;22.40;87.00
31783;DHT22;18351;47.560;9.708;2023-07-31T08:37:50;22.60;86.80
31783;DHT22;18351;47.560;9.708;2023-07-31T08:40:16;22.70;86.40
31783;DHT22;18351;47.560;9.708;2023-07-31T08:42:46;23.00;86.80
31783;DHT22;18351;47.560;9.708;2023-07-31T08:45:16;23.10;83.90
31783;DHT22;18351;47.560;9.708;2023-07-31T08:47:47;23.20;84.00
31783;DHT22;18351;47.560;9.708;2023-07-31T08:50:14;23.10;83.10
31783;DHT22;18351;47.560;9.708;2023-07-31T08:52:40;23.10;85.50
31783;DHT22;18351;47.560;9.708;2023-07-31T08:55:07;23.10;84.50
31783;DHT22;18351;47.560;9.708;2023-07-31T08:57:35;22.90;83.40
31783;DHT22;18351;47.560;9.708;2023-07-31T09:00:02;22.50;83.20
31783;DHT22;18351;47.560;9.708;2023-07-31T09:02:36;22.50;83.50
31783;DHT22;18351;47.560;9.708;2023-07-31T09:05:03;22.40;84.60
31783;DHT22;18351;47.560;9.708;2023-07-31T09:07:30;22.30;87.10
31783;DHT22;18351;47.560;9.708;2023-07-31T09:09:57;22.40;86.20
31783;DHT22;18351;47.560;9.708;2023-07-31T09:12:22;22.30;87.00
31783;DHT22;18351;47.560;9.708;2023-07-31T09:14:48;22.50;89.10
31783;DHT22;18351;47.560;9.708;2023-07-31T09:17:14;22.70;86.10
31783;DHT22;18351;47.560;9.708;2023-07-31T09:19:39;22.50;84.70
31783;DHT22;18351;47.560;9.708;2023-07-31T09:22:06;22.60;87.20
31783;DHT22;18351;47.560;9.708;2023-07-31T09:24:33;22.70;82.70
31783;DHT22;18351;47.560;9.708;2023-07-31T09:27:00;22.60;83.50
31783;DHT22;18351;47.560;9.708;2023-07-31T09:29:27;22.70;84.90
31783;DHT22;18351;47.560;9.708;2023-07-31T09:31:54;22.80;83.70
31783;DHT22;18351;47.560;9.708;2023-07-31T09:34:21;23.00;85.10
31783;DHT22;18351;47.560;9.708;2023-07-31T09:36:53;23.00;85.50
31783;DHT22;18351;47.560;9.708;2023-07-31T09:39:19;23.00;88.70
31783;DHT22;18351;47.560;9.708;2023-07-31T09:41:54;23.20;84.90
31783;DHT22;18351;47.560;9.708;2023-07-31T09:44:20;23.40;85.10
31783;DHT22;18351;47.560;9.708;2023-07-31T09:46:46;23.40;81.40
31783;DHT22;18351;47.560;9.708;2023-07-31T09:49:13;23.40;83.40
31783;DHT22;18351;47.560;9.708;2023-07-31T09:51:40;23.60;81.60
31783;DHT22;18351;47.560;9.708;2023-07-31T09:54:14;23.70;86.70
31783;DHT22;18351;47.560;9.708;2023-07-31T09:56:48;23.80;84.10
31783;DHT22;18351;47.560;9.708;2023-07-31T09:59:14;23.80;82.20
31783;DHT22;18351;47.560;9.708;2023-07-31T10:01:41;23.70;84.40
31783;DHT22;18351;47.560;9.708;2023-07-31T10:04:09;23.70;85.70
31783;DHT22;18351;47.560;9.708;2023-07-31T10:06:36;23.70;82.70
31783;DHT22;18351;47.560;9.708;2023-07-31T10:09:06;23.90;83.10
31783;DHT22;18351;47.560;9.708;2023-07-31T10:11:41;24.00;83.10
31783;DHT22;18351;47.560;9.708;2023-07-31T10:14:07;24.40;82.00
31783;DHT22;18351;47.560;9.708;2023-07-31T10:16:38;24.60;82.90
31783;DHT22;18351;47.560;9.708;2023-07-31T10:19:05;24.70;83.30
31783;DHT22;18351;47.560;9.708;2023-07-31T10:21:32;24.60;81.50
31783;DHT22;18351;47.560;9.708;2023-07-31T10:24:03;24.50;82.00
31783;DHT22;18351;47.560;9.708;2023-07-31T10:26:29;24.50;82.30
31783;DHT22;18351;47.560;9.708;2023-07-31T10:28:56;24.30;78.00
31783;DHT22;18351;47.560;9.708;2023-07-31T10:31:24;24.20;79.70
31783;DHT22;18351;47.560;9.708;2023-07-31T10:33:51;24.10;79.80
31783;DHT22;18351;47.560;9.708;2023-07-31T10:36:19;24.20;83.60
31783;DHT22;18351;47.560;9.708;2023-07-31T10:38:45;24.10;81.20
31783;DHT22;18351;47.560;9.708;2023-07-31T10:41:11;24.00;81.70
31783;DHT22;18351;47.560;9.708;2023-07-31T10:43:37;23.90;82.70
31783;DHT22;18351;47.560;9.708;2023-07-31T10:46:07;23.90;80.60
31783;DHT22;18351;47.560;9.708;2023-07-31T10:48:35;23.60;80.10
31783;DHT22;18351;47.560;9.708;2023-07-31T10:51:12;23.40;85.30
31783;DHT22;18351;47.560;9.708;2023-07-31T10:53:39;23.40;81.30
31783;DHT22;18351;47.560;9.708;2023-07-31T10:56:09;23.30;79.30
31783;DHT22;18351;47.560;9.708;2023-07-31T10:58:38;23.40;85.50
31783;DHT22;18351;47.560;9.708;2023-07-31T11:01:05;23.70;82.60
31783;DHT22;18351;47.560;9.708;2023-07-31T11:03:44;23.80;81.00
31783;DHT22;18351;47.560;9.708;2023-07-31T11:06:10;24.00;84.20
31783;DHT22;18351;47.560;9.708;2023-07-31T11:08:42;24.10;80.80
31783;DHT22;18351;47.560;9.708;2023-07-31T11:11:10;23.90;77.20
31783;DHT22;18351;47.560;9.708;2023-07-31T11:13:44;23.50;83.10
31783;DHT22;18351;47.560;9.708;2023-07-31T11:16:13;23.60;86.00
31783;DHT22;18351;47.560;9.708;2023-07-31T11:18:41;23.80;84.90
31783;DHT22;18351;47.560;9.708;2023-07-31T11:21:07;24.10;80.40
31783;DHT22;18351;47.560;9.708;2023-07-31T11:23:33;24.20;83.60
31783;DHT22;18351;47.560;9.708;2023-07-31T11:26:02;24.30;81.30
31783;DHT22;18351;47.560;9.708;2023-07-31T11:28:34;24.30;79.10
31783;DHT22;18351;47.560;9.708;2023-07-31T11:31:01;24.30;76.90
31783;DHT22;18351;47.560;9.708;2023-07-31T11:33:27;24.50;79.90
31783;DHT22;18351;47.560;9.708;2023-07-31T11:35:52;24.80;79.50
31783;DHT22;18351;47.560;9.708;2023-07-31T11:38:36;24.80;76.60
31783;DHT22;18351;47.560;9.708;2023-07-31T11:41:03;24.60;76.10
31783;DHT22;18351;47.560;9.708;2023-07-31T11:43:31;24.60;78.80
31783;DHT22;18351;47.560;9.708;2023-07-31T11:45:58;24.70;81.50
31783;DHT22;18351;47.560;9.708;2023-07-31T11:51:01;25.70;79.40
31783;DHT22;18351;47.560;9.708;2023-07-31T11:53:38;26.00;76.90
31783;DHT22;18351;47.560;9.708;2023-07-31T11:56:06;26.10;75.70
31783;DHT22;18351;47.560;9.708;2023-07-31T11:58:34;26.20;76.70
31783;DHT22;18351;47.560;9.708;2023-07-31T12:01:00;26.30;75.20
31783;DHT22;18351;47.560;9.708;2023-07-31T12:03:27;26.30;77.40
31783;DHT22;18351;47.560;9.708;2023-07-31T12:05:53;26.30;74.80
31783;DHT22;18351;47.560;9.708;2023-07-31T12:08:21;26.30;73.60
31783;DHT22;18351;47.560;9.708;2023-07-31T12:10:47;26.00;76.10
31783;DHT22;18351;47.560;9.708;2023-07-31T12:13:25;26.00;71.20
31783;DHT22;18351;47.560;9.708;2023-07-31T12:15:59;26.00;73.70
31783;DHT22;18351;47.560;9.708;2023-07-31T12:18:27;25.90;74.40
31783;DHT22;18351;47.560;9.708;2023-07-31T12:21:00;25.90;78.20
31783;DHT22;18351;47.560;9.708;2023-07-31T12:23:26;26.00;75.50
31783;DHT22;18351;47.560;9.708;2023-07-31T12:26:11;26.00;73.60
31783;DHT22;18351;47.560;9.708;2023-07-31T12:31:04;26.10;72.10
31783;DHT22;18351;47.560;9.708;2023-07-31T12:33:35;26.10;74.80
31783;DHT22;18351;47.560;9.708;2023-07-31T12:36:08;26.30;73.20
31783;DHT22;18351;47.560;9.708;2023-07-31T12:38:34;26.40;70.60
31783;DHT22;18351;47.560;9.708;2023-07-31T12:40:59;26.20;70.20
31783;DHT22;18351;47.560;9.708;2023-07-31T12:43:25;26.20;75.10
31783;DHT22;18351;47.560;9.708;2023-07-31T12:45:51;26.20;73.90
31783;DHT22;18351;47.560;9.708;2023-07-31T12:48:16;26.30;72.00
31783;DHT22;18351;47.560;9.708;2023-07-31T12:50:42;26.20;70.30
31783;DHT22;18351;47.560;9.708;2023-07-31T12:53:08;26.30;70.70
31783;DHT22;18351;47.560;9.708;2023-07-31T12:55:34;26.00;70.90
31783;DHT22;18351;47.560;9.708;2023-07-31T12:58:02;26.10;73.60
31783;DHT22;18351;47.560;9.708;2023-07-31T13:00:27;26.10;71.60
31783;DHT22;18351;47.560;9.708;2023-07-31T13:02:53;26.10;70.60
31783;DHT22;18351;47.560;9.708;2023-07-31T13:05:18;26.10;70.20
31783;DHT22;18351;47.560;9.708;2023-07-31T13:07:46;26.30;71.90
31783;DHT22;18351;47.560;9.708;2023-07-31T13:10:11;26.40;71.60
31783;DHT22;18351;47.560;9.708;2023-07-31T13:12:37;26.50;70.70
31783;DHT22;18351;47.560;9.708;2023-07-31T13:15:04;26.50;71.60
31783;DHT22;18351;47.560;9.708;2023-07-31T13:17:30;26.60;68.90
31783;DHT22;18351;47.560;9.708;2023-07-31T13:19:56;26.60;68.90
31783;DHT22;18351;47.560;9.708;2023-07-31T13:22:21;26.80;72.00
31783;DHT22;18351;47.560;9.708;2023-07-31T13:24:47;27.00;73.80
31783;DHT22;18351;47.560;9.708;2023-07-31T13:27:13;27.20;74.60
31783;DHT22;18351;47.560;9.708;2023-07-31T13:29:39;27.30;71.90
31783;DHT22;18351;47.560;9.708;2023-07-31T13:32:05;27.20;71.40
31783;DHT22;18351;47.560;9.708;2023-07-31T13:34:30;27.10;72.30
31783;DHT22;18351;47.560;9.708;2023-07-31T13:36:56;26.80;74.00
31783;DHT22;18351;47.560;9.708;2023-07-31T13:39:21;26.80;72.30
31783;DHT22;18351;47.560;9.708;2023-07-31T13:41:47;26.70;73.50
31783;DHT22;18351;47.560;9.708;2023-07-31T13:44:12;26.70;72.10
31783;DHT22;18351;47.560;9.708;2023-07-31T13:46:38;26.60;72.60
31783;DHT22;18351;47.560;9.708;2023-07-31T13:49:04;26.60;73.30
31783;DHT22;18351;47.560;9.708;2023-07-31T13:51:29;26.50;74.10
31783;DHT22;18351;47.560;9.708;2023-07-31T13:53:55;26.50;72.20
31783;DHT22;18351;47.560;9.708;2023-07-31T13:56:21;26.50;73.30
31783;DHT22;18351;47.560;9.708;2023-07-31T13:58:46;26.60;72.00
31783;DHT22;18351;47.560;9.708;2023-07-31T14:01:12;26.70;68.10
31783;DHT22;18351;47.560;9.708;2023-07-31T14:03:37;26.70;71.00
31783;DHT22;18351;47.560;9.708;2023-07-31T14:06:03;26.70;69.60
31783;DHT22;18351;47.560;9.708;2023-07-31T14:08:29;26.80;70.80
31783;DHT22;18351;47.560;9.708;2023-07-31T14:10:55;26.90;69.50
31783;DHT22;18351;47.560;9.708;2023-07-31T14:13:21;26.80;69.70
31783;DHT22;18351;47.560;9.708;2023-07-31T14:15:47;26.90;70.80
31783;DHT22;18351;47.560;9.708;2023-07-31T14:18:12;27.00;69.30
31783;DHT22;18351;47.560;9.708;2023-07-31T14:20:38;27.20;71.10
31783;DHT22;18351;47.560;9.708;2023-07-31T14:23:03;27.00;69.10
31783;DHT22;18351;47.560;9.708;2023-07-31T14:25:29;27.00;71.10
31783;DHT22;18351;47.560;9.708;2023-07-31T14:27:55;26.80;67.10
31783;DHT22;18351;47.560;9.708;2023-07-31T14:30:20;26.70;68.20
31783;DHT22;18351;47.560;9.708;2023-07-31T14:32:46;26.70;66.90
31783;DHT22;18351;47.560;9.708;2023-07-31T14:35:12;26.40;71.20
31783;DHT22;18351;47.560;9.708;2023-07-31T14:37:43;26.50;70.30
31783;DHT22;18351;47.560;9.708;2023-07-31T14:40:10;26.70;69.90
31783;DHT22;18351;47.560;9.708;2023-07-31T14:42:36;26.90;69.10
31783;DHT22;18351;47.560;9.708;2023-07-31T14:45:03;26.90;69.30
31783;DHT22;18351;47.560;9.708;2023-07-31T14:47:29;26.80;67.10
31783;DHT22;18351;47.560;9.708;2023-07-31T14:49:56;27.00;69.50
31783;DHT22;18351;47.560;9.708;2023-07-31T14:52:22;26.90;68.60
31783;DHT22;18351;47.560;9.708;2023-07-31T14:54:47;26.90;67.80
31783;DHT22;18351;47.560;9.708;2023-07-31T14:57:13;26.90;68.10
31783;DHT22;18351;47.560;9.708;2023-07-31T14:59:38;26.40;65.90
31783;DHT22;18351;47.560;9.708;2023-07-31T15:02:04;26.30;67.00
31783;DHT22;18351;47.560;9.708;2023-07-31T15:04:30;26.30;69.30
31783;DHT22;18351;47.560;9.708;2023-07-31T15:06:55;26.30;70.10
31783;DHT22;18351;47.560;9.708;2023-07-31T15:09:21;26.40;68.60
31783;DHT22;18351;47.560;9.708;2023-07-31T15:11:47;26.40;67.50
31783;DHT22;18351;47.560;9.708;2023-07-31T15:14:13;26.60;69.20
31783;DHT22;18351;47.560;9.708;2023-07-31T15:16:38;26.50;68.70
31783;DHT22;18351;47.560;9.708;2023-07-31T15:19:04;26.40;69.00
31783;DHT22;18351;47.560;9.708;2023-07-31T15:21:29;26.30;68.40
31783;DHT22;18351;47.560;9.708;2023-07-31T15:23:55;26.20;68.90
31783;DHT22;18351;47.560;9.708;2023-07-31T15:26:21;26.10;69.20
31783;DHT22;18351;47.560;9.708;2023-07-31T15:28:53;26.10;71.00
31783;DHT22;18351;47.560;9.708;2023-07-31T15:31:20;26.00;69.60
31783;DHT22;18351;47.560;9.708;2023-07-31T15:33:47;26.00;69.70
31783;DHT22;18351;47.560;9.708;2023-07-31T15:36:13;26.10;69.50